sensor_id;sensor_type;location;lat;lon;timestamp;P1;durP1;ratioP1;P2;durP2;ratioP2
69795;SDS011;57073;45.650;9.612;2024-01-06T00:01:00;6.57;;;3.97;;
69795;SDS011;57073;45.650;9.612;2024-01-06T00:06:01;5.53;;;3.00;;
69795;SDS011;57073;45.650;9.612;2024-01-06T00:11:01;5.83;;;3.13;;
69795;SDS011;57073;45.650;9.612;2024-01-06T00:16:03;4.90;;;2.65;;
69795;SDS011;57073;45.650;9.612;2024-01-06T00:21:13;4.57;;;2.22;;
69795;SDS011;57073;45.650;9.612;2024-01-06T00:26:13;3.05;;;1.92;;
69795;SDS011;57073;45.650;9.612;2024-01-06T00:31:13;2.50;;;1.60;;
69795;SDS011;57073;45.650;9.612;2024-01-06T00:36:14;2.97;;;1.37;;
69795;SDS011;57073;45.650;9.612;2024-01-06T00:41:14;4.50;;;2.10;;
69795;SDS011;57073;45.650;9.612;2024-01-06T00:46:15;5.27;;;2.30;;
69795;SDS011;57073;45.650;9.612;2024-01-06T00:51:15;3.70;;;2.03;;
69795;SDS011;57073;45.650;9.612;2024-01-06T00:56:15;3.73;;;2.10;;
69795;SDS011;57073;45.650;9.612;2024-01-06T01:01:16;3.20;;;2.40;;
69795;SDS011;57073;45.650;9.612;2024-01-06T01:06:16;3.40;;;2.33;;
69795;SDS011;57073;45.650;9.612;2024-01-06T01:11:17;3.30;;;2.40;;
69795;SDS011;57073;45.650;9.612;2024-01-06T01:16:18;4.13;;;2.20;;
69795;SDS011;57073;45.650;9.612;2024-01-06T01:21:18;3.87;;;2.03;;
69795;SDS011;57073;45.650;9.612;2024-01-06T01:26:18;3.33;;;2.00;;
69795;SDS011;57073;45.650;9.612;2024-01-06T01:31:19;3.13;;;2.00;;
69795;SDS011;57073;45.650;9.612;2024-01-06T01:36:19;2.47;;;1.70;;
69795;SDS011;57073;45.650;9.612;2024-01-06T01:41:19;2.37;;;1.60;;
69795;SDS011;57073;45.650;9.612;2024-01-06T01:46:20;2.73;;;1.80;;
69795;SDS011;57073;45.650;9.612;2024-01-06T01:51:20;2.17;;;1.60;;
69795;SDS011;57073;45.650;9.612;2024-01-06T01:56:21;3.00;;;1.87;;
69795;SDS011;57073;45.650;9.612;2024-01-06T02:01:22;3.17;;;2.15;;
69795;SDS011;57073;45.650;9.612;2024-01-06T02:06:22;4.30;;;2.70;;
69795;SDS011;57073;45.650;9.612;2024-01-06T02:11:22;4.57;;;3.00;;
69795;SDS011;57073;45.650;9.612;2024-01-06T02:16:23;6.50;;;2.83;;
69795;SDS011;57073;45.650;9.612;2024-01-06T02:21:23;3.47;;;2.77;;
69795;SDS011;57073;45.650;9.612;2024-01-06T02:26:24;4.47;;;2.70;;
69795;SDS011;57073;45.650;9.612;2024-01-06T02:31:24;3.10;;;2.20;;
69795;SDS011;57073;45.650;9.612;2024-01-06T02:36:26;3.30;;;2.00;;
69795;SDS011;57073;45.650;9.612;2024-01-06T02:41:26;2.83;;;1.80;;
69795;SDS011;57073;45.650;9.612;2024-01-06T02:46:26;2.60;;;1.90;;
69795;SDS011;57073;45.650;9.612;2024-01-06T02:51:27;2.43;;;1.67;;
69795;SDS011;57073;45.650;9.612;2024-01-06T02:56:27;2.60;;;1.90;;
69795;SDS011;57073;45.650;9.612;2024-01-06T03:01:27;2.73;;;2.00;;
69795;SDS011;57073;45.650;9.612;2024-01-06T03:06:28;3.13;;;2.20;;
69795;SDS011;57073;45.650;9.612;2024-01-06T03:11:28;2.87;;;1.97;;
69795;SDS011;57073;45.650;9.612;2024-01-06T03:16:28;3.00;;;1.93;;
69795;SDS011;57073;45.650;9.612;2024-01-06T03:21:29;2.20;;;1.67;;
69795;SDS011;57073;45.650;9.612;2024-01-06T03:26:29;2.47;;;1.93;;
69795;SDS011;57073;45.650;9.612;2024-01-06T03:31:29;3.20;;;2.17;;
69795;SDS011;57073;45.650;9.612;2024-01-06T03:36:30;2.57;;;1.60;;
69795;SDS011;57073;45.650;9.612;2024-01-06T03:41:30;3.07;;;1.90;;
69795;SDS011;57073;45.650;9.612;2024-01-06T03:46:30;3.27;;;2.07;;
69795;SDS011;57073;45.650;9.612;2024-01-06T03:51:31;2.90;;;1.87;;
69795;SDS011;57073;45.650;9.612;2024-01-06T03:56:31;3.40;;;1.90;;
69795;SDS011;57073;45.650;9.612;2024-01-06T04:01:32;3.10;;;2.00;;
69795;SDS011;57073;45.650;9.612;2024-01-06T04:06:34;2.92;;;1.83;;
69795;SDS011;57073;45.650;9.612;2024-01-06T04:11:35;2.67;;;1.80;;
69795;SDS011;57073;45.650;9.612;2024-01-06T04:16:35;1.80;;;1.00;;
69795;SDS011;57073;45.650;9.612;2024-01-06T04:21:35;3.23;;;1.37;;
69795;SDS011;57073;45.650;9.612;2024-01-06T04:26:36;1.93;;;1.10;;
69795;SDS011;57073;45.650;9.612;2024-01-06T04:31:36;2.67;;;1.27;;
69795;SDS011;57073;45.650;9.612;2024-01-06T04:36:36;2.00;;;1.20;;
69795;SDS011;57073;45.650;9.612;2024-01-06T04:41:37;1.93;;;1.10;;
69795;SDS011;57073;45.650;9.612;2024-01-06T04:46:37;1.60;;;1.20;;
69795;SDS011;57073;45.650;9.612;2024-01-06T04:51:37;4.03;;;1.50;;
69795;SDS011;57073;45.650;9.612;2024-01-06T04:56:38;2.70;;;1.00;;
69795;SDS011;57073;45.650;9.612;2024-01-06T05:01:38;1.80;;;0.90;;
69795;SDS011;57073;45.650;9.612;2024-01-06T05:06:39;1.23;;;0.77;;
69795;SDS011;57073;45.650;9.612;2024-01-06T05:11:39;1.60;;;0.60;;
69795;SDS011;57073;45.650;9.612;2024-01-06T05:16:39;1.30;;;0.60;;
69795;SDS011;57073;45.650;9.612;2024-01-06T05:21:40;0.90;;;0.60;;
69795;SDS011;57073;45.650;9.612;2024-01-06T05:26:40;1.37;;;0.63;;
69795;SDS011;57073;45.650;9.612;2024-01-06T05:31:40;1.53;;;0.60;;
69795;SDS011;57073;45.650;9.612;2024-01-06T05:36:41;1.43;;;0.70;;
69795;SDS011;57073;45.650;9.612;2024-01-06T05:41:43;2.27;;;0.77;;
69795;SDS011;57073;45.650;9.612;2024-01-06T05:46:43;1.15;;;0.68;;
69795;SDS011;57073;45.650;9.612;2024-01-06T05:51:44;1.40;;;0.90;;
69795;SDS011;57073;45.650;9.612;2024-01-06T05:56:45;2.33;;;1.10;;
69795;SDS011;57073;45.650;9.612;2024-01-06T06:01:45;2.27;;;1.50;;
69795;SDS011;57073;45.650;9.612;2024-01-06T06:06:45;4.83;;;2.23;;
69795;SDS011;57073;45.650;9.612;2024-01-06T06:11:46;3.07;;;2.13;;
69795;SDS011;57073;45.650;9.612;2024-01-06T06:16:46;3.33;;;2.40;;
69795;SDS011;57073;45.650;9.612;2024-01-06T06:21:47;3.78;;;2.67;;
69795;SDS011;57073;45.650;9.612;2024-01-06T06:26:48;5.60;;;3.10;;
69795;SDS011;57073;45.650;9.612;2024-01-06T06:31:48;4.83;;;3.60;;
69795;SDS011;57073;45.650;9.612;2024-01-06T06:36:49;5.60;;;4.40;;
69795;SDS011;57073;45.650;9.612;2024-01-06T06:41:49;7.03;;;4.90;;
69795;SDS011;57073;45.650;9.612;2024-01-06T06:46:49;7.83;;;5.43;;
69795;SDS011;57073;45.650;9.612;2024-01-06T06:51:50;9.37;;;5.30;;
69795;SDS011;57073;45.650;9.612;2024-01-06T06:56:50;8.63;;;5.83;;
69795;SDS011;57073;45.650;9.612;2024-01-06T07:01:50;8.20;;;5.43;;
69795;SDS011;57073;45.650;9.612;2024-01-06T07:06:51;7.93;;;5.03;;
69795;SDS011;57073;45.650;9.612;2024-01-06T07:11:51;9.83;;;6.00;;
69795;SDS011;57073;45.650;9.612;2024-01-06T07:16:52;8.30;;;5.70;;
69795;SDS011;57073;45.650;9.612;2024-01-06T07:21:52;9.00;;;6.10;;
69795;SDS011;57073;45.650;9.612;2024-01-06T07:26:52;9.47;;;6.13;;
69795;SDS011;57073;45.650;9.612;2024-01-06T07:31:53;10.13;;;6.17;;
69795;SDS011;57073;45.650;9.612;2024-01-06T07:36:53;9.00;;;5.73;;
69795;SDS011;57073;45.650;9.612;2024-01-06T07:41:56;8.50;;;5.30;;
69795;SDS011;57073;45.650;9.612;2024-01-06T07:46:57;9.10;;;5.72;;
69795;SDS011;57073;45.650;9.612;2024-01-06T07:51:57;7.27;;;5.23;;
69795;SDS011;57073;45.650;9.612;2024-01-06T07:56:58;7.40;;;4.93;;
69795;SDS011;57073;45.650;9.612;2024-01-06T08:01:59;9.68;;;5.32;;
69795;SDS011;57073;45.650;9.612;2024-01-06T08:07:00;6.60;;;4.90;;
69795;SDS011;57073;45.650;9.612;2024-01-06T08:12:00;8.40;;;5.03;;
69795;SDS011;57073;45.650;9.612;2024-01-06T08:17:02;7.93;;;5.00;;
69795;SDS011;57073;45.650;9.612;2024-01-06T08:22:02;9.43;;;5.00;;
69795;SDS011;57073;45.650;9.612;2024-01-06T08:27:03;6.77;;;4.60;;
69795;SDS011;57073;45.650;9.612;2024-01-06T08:32:03;5.75;;;4.35;;
69795;SDS011;57073;45.650;9.612;2024-01-06T08:37:04;7.57;;;4.37;;
69795;SDS011;57073;45.650;9.612;2024-01-06T08:42:05;8.70;;;5.03;;
69795;SDS011;57073;45.650;9.612;2024-01-06T08:47:05;6.20;;;4.20;;
69795;SDS011;57073;45.650;9.612;2024-01-06T08:52:06;7.38;;;4.80;;
69795;SDS011;57073;45.650;9.612;2024-01-06T08:57:06;8.47;;;5.20;;
69795;SDS011;57073;45.650;9.612;2024-01-06T09:02:07;7.73;;;4.97;;
69795;SDS011;57073;45.650;9.612;2024-01-06T09:07:07;9.13;;;5.60;;
69795;SDS011;57073;45.650;9.612;2024-01-06T09:12:08;11.40;;;6.30;;
69795;SDS011;57073;45.650;9.612;2024-01-06T09:17:08;10.40;;;6.60;;
69795;SDS011;57073;45.650;9.612;2024-01-06T09:22:09;10.87;;;6.77;;
69795;SDS011;57073;45.650;9.612;2024-01-06T09:27:09;11.60;;;7.30;;
69795;SDS011;57073;45.650;9.612;2024-01-06T09:32:10;13.50;;;7.87;;
69795;SDS011;57073;45.650;9.612;2024-01-06T09:37:10;15.33;;;8.87;;
69795;SDS011;57073;45.650;9.612;2024-01-06T09:42:10;15.87;;;8.97;;
69795;SDS011;57073;45.650;9.612;2024-01-06T09:47:12;17.73;;;8.97;;
69795;SDS011;57073;45.650;9.612;2024-01-06T09:52:13;16.33;;;8.90;;
69795;SDS011;57073;45.650;9.612;2024-01-06T09:57:17;15.90;;;8.75;;
69795;SDS011;57073;45.650;9.612;2024-01-06T10:02:18;16.65;;;8.75;;
69795;SDS011;57073;45.650;9.612;2024-01-06T10:07:20;16.23;;;8.97;;
69795;SDS011;57073;45.650;9.612;2024-01-06T10:12:24;15.40;;;9.50;;
69795;SDS011;57073;45.650;9.612;2024-01-06T10:17:25;15.95;;;8.70;;
69795;SDS011;57073;45.650;9.612;2024-01-06T10:22:25;14.43;;;9.03;;
69795;SDS011;57073;45.650;9.612;2024-01-06T10:27:27;14.55;;;8.52;;
69795;SDS011;57073;45.650;9.612;2024-01-06T10:32:30;14.43;;;9.17;;
69795;SDS011;57073;45.650;9.612;2024-01-06T10:37:32;16.00;;;9.00;;
69795;SDS011;57073;45.650;9.612;2024-01-06T10:42:32;17.48;;;9.30;;
69795;SDS011;57073;45.650;9.612;2024-01-06T10:47:33;14.77;;;8.73;;
69795;SDS011;57073;45.650;9.612;2024-01-06T10:52:34;14.97;;;9.27;;
69795;SDS011;57073;45.650;9.612;2024-01-06T10:57:36;17.85;;;9.63;;
69795;SDS011;57073;45.650;9.612;2024-01-06T11:02:38;17.17;;;9.85;;
69795;SDS011;57073;45.650;9.612;2024-01-06T11:07:39;18.10;;;9.47;;
69795;SDS011;57073;45.650;9.612;2024-01-06T11:12:42;14.68;;;8.77;;
69795;SDS011;57073;45.650;9.612;2024-01-06T11:17:49;15.27;;;8.67;;
69795;SDS011;57073;45.650;9.612;2024-01-06T11:22:53;14.95;;;8.63;;
69795;SDS011;57073;45.650;9.612;2024-01-06T11:27:54;13.87;;;8.03;;
69795;SDS011;57073;45.650;9.612;2024-01-06T11:32:57;16.52;;;8.73;;
69795;SDS011;57073;45.650;9.612;2024-01-06T11:38:02;14.52;;;8.57;;
69795;SDS011;57073;45.650;9.612;2024-01-06T11:43:07;14.45;;;8.80;;
69795;SDS011;57073;45.650;9.612;2024-01-06T11:48:10;18.95;;;9.82;;
69795;SDS011;57073;45.650;9.612;2024-01-06T11:53:12;17.37;;;10.87;;
69795;SDS011;57073;45.650;9.612;2024-01-06T11:58:12;16.70;;;9.77;;
69795;SDS011;57073;45.650;9.612;2024-01-06T12:03:15;14.53;;;9.33;;
69795;SDS011;57073;45.650;9.612;2024-01-06T12:08:15;15.10;;;9.90;;
69795;SDS011;57073;45.650;9.612;2024-01-06T12:13:19;15.88;;;9.30;;
69795;SDS011;57073;45.650;9.612;2024-01-06T12:18:19;16.30;;;9.30;;
69795;SDS011;57073;45.650;9.612;2024-01-06T12:23:24;15.73;;;9.03;;
69795;SDS011;57073;45.650;9.612;2024-01-06T12:28:27;18.40;;;9.63;;
69795;SDS011;57073;45.650;9.612;2024-01-06T12:33:28;17.67;;;10.67;;
69795;SDS011;57073;45.650;9.612;2024-01-06T12:38:29;17.70;;;10.27;;
69795;SDS011;57073;45.650;9.612;2024-01-06T12:43:30;15.82;;;9.90;;
69795;SDS011;57073;45.650;9.612;2024-01-06T12:48:30;14.97;;;9.57;;
69795;SDS011;57073;45.650;9.612;2024-01-06T12:53:31;14.53;;;9.77;;
69795;SDS011;57073;45.650;9.612;2024-01-06T12:58:31;13.80;;;9.43;;
69795;SDS011;57073;45.650;9.612;2024-01-06T13:03:31;15.33;;;9.70;;
69795;SDS011;57073;45.650;9.612;2024-01-06T13:08:32;15.50;;;9.35;;
69795;SDS011;57073;45.650;9.612;2024-01-06T13:13:33;19.20;;;11.77;;
69795;SDS011;57073;45.650;9.612;2024-01-06T13:18:33;21.13;;;11.70;;
69795;SDS011;57073;45.650;9.612;2024-01-06T13:23:33;16.43;;;10.67;;
69795;SDS011;57073;45.650;9.612;2024-01-06T13:28:34;18.30;;;11.33;;
69795;SDS011;57073;45.650;9.612;2024-01-06T13:33:34;16.70;;;11.30;;
69795;SDS011;57073;45.650;9.612;2024-01-06T13:38:35;17.33;;;11.10;;
69795;SDS011;57073;45.650;9.612;2024-01-06T13:43:35;20.33;;;12.03;;
69795;SDS011;57073;45.650;9.612;2024-01-06T13:48:35;19.67;;;12.70;;
69795;SDS011;57073;45.650;9.612;2024-01-06T13:53:36;19.50;;;12.00;;
69795;SDS011;57073;45.650;9.612;2024-01-06T13:58:36;17.77;;;11.40;;
69795;SDS011;57073;45.650;9.612;2024-01-06T14:03:38;19.30;;;12.55;;
69795;SDS011;57073;45.650;9.612;2024-01-06T14:08:39;19.48;;;11.75;;
69795;SDS011;57073;45.650;9.612;2024-01-06T14:13:41;21.00;;;12.52;;
69795;SDS011;57073;45.650;9.612;2024-01-06T14:18:41;19.93;;;11.93;;
69795;SDS011;57073;45.650;9.612;2024-01-06T14:23:44;18.42;;;11.88;;
69795;SDS011;57073;45.650;9.612;2024-01-06T14:28:46;19.73;;;12.13;;
69795;SDS011;57073;45.650;9.612;2024-01-06T14:33:47;21.92;;;13.05;;
69795;SDS011;57073;45.650;9.612;2024-01-06T14:38:47;21.33;;;13.00;;
69795;SDS011;57073;45.650;9.612;2024-01-06T14:43:47;19.87;;;12.60;;
69795;SDS011;57073;45.650;9.612;2024-01-06T14:48:48;22.23;;;13.63;;
69795;SDS011;57073;45.650;9.612;2024-01-06T14:53:48;22.07;;;12.97;;
69795;SDS011;57073;45.650;9.612;2024-01-06T14:58:49;22.67;;;13.10;;
69795;SDS011;57073;45.650;9.612;2024-01-06T15:03:49;24.77;;;14.07;;
69795;SDS011;57073;45.650;9.612;2024-01-06T15:08:50;27.33;;;14.50;;
69795;SDS011;57073;45.650;9.612;2024-01-06T15:13:50;24.40;;;13.90;;
69795;SDS011;57073;45.650;9.612;2024-01-06T15:18:50;23.07;;;14.17;;
69795;SDS011;57073;45.650;9.612;2024-01-06T15:23:51;23.93;;;13.60;;
69795;SDS011;57073;45.650;9.612;2024-01-06T15:28:51;26.07;;;14.70;;
69795;SDS011;57073;45.650;9.612;2024-01-06T15:33:52;25.67;;;14.93;;
69795;SDS011;57073;45.650;9.612;2024-01-06T15:38:52;26.43;;;14.77;;
69795;SDS011;57073;45.650;9.612;2024-01-06T15:43:53;27.87;;;15.87;;
69795;SDS011;57073;45.650;9.612;2024-01-06T15:48:53;26.60;;;15.10;;
69795;SDS011;57073;45.650;9.612;2024-01-06T15:53:53;24.63;;;13.53;;
69795;SDS011;57073;45.650;9.612;2024-01-06T15:58:54;27.40;;;15.00;;
69795;SDS011;57073;45.650;9.612;2024-01-06T16:03:56;27.07;;;15.07;;
69795;SDS011;57073;45.650;9.612;2024-01-06T16:08:56;26.47;;;14.67;;
69795;SDS011;57073;45.650;9.612;2024-01-06T16:13:57;28.43;;;15.77;;
69795;SDS011;57073;45.650;9.612;2024-01-06T16:18:57;29.87;;;16.37;;
69795;SDS011;57073;45.650;9.612;2024-01-06T16:23:58;31.02;;;17.20;;
69795;SDS011;57073;45.650;9.612;2024-01-06T16:29:00;33.03;;;16.83;;
69795;SDS011;57073;45.650;9.612;2024-01-06T16:34:00;31.93;;;17.40;;
69795;SDS011;57073;45.650;9.612;2024-01-06T16:39:00;32.50;;;16.73;;
69795;SDS011;57073;45.650;9.612;2024-01-06T16:44:01;30.37;;;17.23;;
69795;SDS011;57073;45.650;9.612;2024-01-06T16:49:01;32.17;;;17.17;;
69795;SDS011;57073;45.650;9.612;2024-01-06T16:54:02;30.70;;;17.23;;
69795;SDS011;57073;45.650;9.612;2024-01-06T16:59:02;29.70;;;16.30;;
69795;SDS011;57073;45.650;9.612;2024-01-06T17:04:03;30.27;;;17.73;;
69795;SDS011;57073;45.650;9.612;2024-01-06T17:09:03;32.10;;;18.33;;
69795;SDS011;57073;45.650;9.612;2024-01-06T17:14:04;28.90;;;17.00;;
69795;SDS011;57073;45.650;9.612;2024-01-06T17:19:04;32.57;;;17.40;;
69795;SDS011;57073;45.650;9.612;2024-01-06T17:24:05;32.77;;;18.07;;
69795;SDS011;57073;45.650;9.612;2024-01-06T17:29:05;34.33;;;18.87;;
69795;SDS011;57073;45.650;9.612;2024-01-06T17:34:06;34.55;;;19.50;;
69795;SDS011;57073;45.650;9.612;2024-01-06T17:39:08;31.97;;;18.23;;
69795;SDS011;57073;45.650;9.612;2024-01-06T17:44:09;31.77;;;17.42;;
69795;SDS011;57073;45.650;9.612;2024-01-06T17:49:10;32.50;;;18.43;;
69795;SDS011;57073;45.650;9.612;2024-01-06T17:54:11;36.10;;;18.60;;
69795;SDS011;57073;45.650;9.612;2024-01-06T17:59:12;35.03;;;19.05;;
69795;SDS011;57073;45.650;9.612;2024-01-06T18:04:13;33.90;;;19.93;;
69795;SDS011;57073;45.650;9.612;2024-01-06T18:09:13;35.53;;;20.47;;
69795;SDS011;57073;45.650;9.612;2024-01-06T18:14:17;36.05;;;20.25;;
69795;SDS011;57073;45.650;9.612;2024-01-06T18:19:18;35.90;;;20.43;;
69795;SDS011;57073;45.650;9.612;2024-01-06T18:24:18;34.37;;;20.03;;
69795;SDS011;57073;45.650;9.612;2024-01-06T18:29:19;37.17;;;20.27;;
69795;SDS011;57073;45.650;9.612;2024-01-06T18:34:21;42.70;;;23.33;;
69795;SDS011;57073;45.650;9.612;2024-01-06T18:39:21;38.27;;;22.47;;
69795;SDS011;57073;45.650;9.612;2024-01-06T18:44:23;37.92;;;21.00;;
69795;SDS011;57073;45.650;9.612;2024-01-06T18:49:24;40.97;;;23.07;;
69795;SDS011;57073;45.650;9.612;2024-01-06T18:54:24;41.93;;;22.40;;
69795;SDS011;57073;45.650;9.612;2024-01-06T18:59:24;40.27;;;22.53;;
69795;SDS011;57073;45.650;9.612;2024-01-06T19:04:25;38.13;;;21.83;;
69795;SDS011;57073;45.650;9.612;2024-01-06T19:09:25;35.93;;;20.63;;
69795;SDS011;57073;45.650;9.612;2024-01-06T19:14:28;38.47;;;20.65;;
69795;SDS011;57073;45.650;9.612;2024-01-06T19:19:35;38.57;;;21.83;;
69795;SDS011;57073;45.650;9.612;2024-01-06T19:24:40;38.53;;;23.13;;
69795;SDS011;57073;45.650;9.612;2024-01-06T19:29:41;36.90;;;21.42;;
69795;SDS011;57073;45.650;9.612;2024-01-06T19:34:42;39.30;;;23.07;;
69795;SDS011;57073;45.650;9.612;2024-01-06T19:39:43;40.77;;;23.67;;
69795;SDS011;57073;45.650;9.612;2024-01-06T19:44:44;40.20;;;23.30;;
69795;SDS011;57073;45.650;9.612;2024-01-06T19:49:46;48.45;;;25.52;;
69795;SDS011;57073;45.650;9.612;2024-01-06T19:54:46;41.23;;;25.00;;
69795;SDS011;57073;45.650;9.612;2024-01-06T19:59:49;43.43;;;24.63;;
69795;SDS011;57073;45.650;9.612;2024-01-06T20:04:52;44.70;;;24.85;;
69795;SDS011;57073;45.650;9.612;2024-01-06T20:09:52;41.23;;;24.77;;
69795;SDS011;57073;45.650;9.612;2024-01-06T20:14:53;44.20;;;24.77;;
69795;SDS011;57073;45.650;9.612;2024-01-06T20:19:57;43.55;;;24.90;;
69795;SDS011;57073;45.650;9.612;2024-01-06T20:24:57;44.87;;;25.10;;
69795;SDS011;57073;45.650;9.612;2024-01-06T20:30:01;44.53;;;25.27;;
69795;SDS011;57073;45.650;9.612;2024-01-06T20:35:09;41.93;;;23.73;;
69795;SDS011;57073;45.650;9.612;2024-01-06T20:40:11;41.00;;;23.98;;
69795;SDS011;57073;45.650;9.612;2024-01-06T20:45:14;40.53;;;24.23;;
69795;SDS011;57073;45.650;9.612;2024-01-06T20:50:20;38.27;;;21.87;;
69795;SDS011;57073;45.650;9.612;2024-01-06T20:55:23;37.75;;;22.02;;
69795;SDS011;57073;45.650;9.612;2024-01-06T21:00:24;34.42;;;20.65;;
69795;SDS011;57073;45.650;9.612;2024-01-06T21:05:24;42.40;;;24.40;;
69795;SDS011;57073;45.650;9.612;2024-01-06T21:10:25;46.60;;;25.70;;
69795;SDS011;57073;45.650;9.612;2024-01-06T21:15:25;42.60;;;24.80;;
69795;SDS011;57073;45.650;9.612;2024-01-06T21:20:27;42.50;;;24.08;;
69795;SDS011;57073;45.650;9.612;2024-01-06T21:25:28;43.70;;;24.50;;
69795;SDS011;57073;45.650;9.612;2024-01-06T21:30:29;44.77;;;25.47;;
69795;SDS011;57073;45.650;9.612;2024-01-06T21:35:29;41.55;;;25.90;;
69795;SDS011;57073;45.650;9.612;2024-01-06T21:40:30;41.40;;;24.97;;
69795;SDS011;57073;45.650;9.612;2024-01-06T21:45:31;41.13;;;24.47;;
69795;SDS011;57073;45.650;9.612;2024-01-06T21:50:32;42.15;;;24.38;;
69795;SDS011;57073;45.650;9.612;2024-01-06T21:55:32;39.07;;;22.70;;
69795;SDS011;57073;45.650;9.612;2024-01-06T22:00:33;42.07;;;23.53;;
69795;SDS011;57073;45.650;9.612;2024-01-06T22:05:33;39.90;;;22.67;;
69795;SDS011;57073;45.650;9.612;2024-01-06T22:10:33;55.53;;;25.47;;
69795;SDS011;57073;45.650;9.612;2024-01-06T22:15:34;54.43;;;26.40;;
69795;SDS011;57073;45.650;9.612;2024-01-06T22:20:34;65.23;;;25.07;;
69795;SDS011;57073;45.650;9.612;2024-01-06T22:25:35;68.23;;;27.57;;
69795;SDS011;57073;45.650;9.612;2024-01-06T22:30:36;57.72;;;26.58;;
69795;SDS011;57073;45.650;9.612;2024-01-06T22:35:37;66.88;;;26.08;;
69795;SDS011;57073;45.650;9.612;2024-01-06T22:40:38;78.75;;;31.48;;
69795;SDS011;57073;45.650;9.612;2024-01-06T22:45:38;94.07;;;32.53;;
69795;SDS011;57073;45.650;9.612;2024-01-06T22:50:40;70.03;;;27.77;;
69795;SDS011;57073;45.650;9.612;2024-01-06T22:55:41;70.68;;;27.50;;
69795;SDS011;57073;45.650;9.612;2024-01-06T23:00:42;105.73;;;35.50;;
69795;SDS011;57073;45.650;9.612;2024-01-06T23:05:44;76.82;;;28.77;;
69795;SDS011;57073;45.650;9.612;2024-01-06T23:10:47;60.13;;;26.48;;
69795;SDS011;57073;45.650;9.612;2024-01-06T23:15:48;61.47;;;26.17;;
69795;SDS011;57073;45.650;9.612;2024-01-06T23:20:51;70.20;;;26.85;;
69795;SDS011;57073;45.650;9.612;2024-01-06T23:25:51;58.83;;;25.97;;
69795;SDS011;57073;45.650;9.612;2024-01-06T23:30:52;53.87;;;24.87;;
69795;SDS011;57073;45.650;9.612;2024-01-06T23:35:52;88.33;;;27.50;;
69795;SDS011;57073;45.650;9.612;2024-01-06T23:40:53;56.10;;;24.42;;
69795;SDS011;57073;45.650;9.612;2024-01-06T23:45:53;55.87;;;25.37;;
69795;SDS011;57073;45.650;9.612;2024-01-06T23:50:53;55.30;;;24.83;;
69795;SDS011;57073;45.650;9.612;2024-01-06T23:55:54;54.60;;;25.97;;
